Terminal Aerodrome Forecast
Issued by NWS Melbourne, FL

Home | Current Version | Previous Version | Text Only | Print | Product List | Glossary On
Versions: 1 2 3 4 5 6 7 8 9 10 11 12 13 14 15 16 17 18 19 20 21 22 23 24 25 26 27 28 29
000
FTUS42 KMLB 262350 RRA
TAFVRB
TAF
KVRB 262350Z 2700/2724 20004KT P6SM SCT040 OVC080
     FM270600 22006KT P6SM VCSH SCT030 BKN070
      TEMPO 2708/2712 -SHRA SCT020 BKN035
     FM271300 22014G20KT P6SM VCSH SCT025 OVC060
      TEMPO 2718/2721 P6SM TS BKN050CB
     FM272100 25020G28KT P6SM -SHRA OVC050=

USA.gov is the U.S. government's official web portal to all federal, state and local government web resources and services.